Time;durP1;ratioP1;P1;durP2;ratioP2;P2;SDS_P1;SDS_P2;PMS_P1;PMS_P2;Temp;Humidity;BMP_temperature;BMP_pressure;BME280_temperature;BME280_humidity;BME280_pressure;Samples;Min_cycle;Max_cycle;Signal;HPM_P1;HPM_P2
2022/12/29 00:09:02;;;;;;;14.4;8.9;;;;;;;1.2;74.1;98820;;;;
2022/12/29 00:19:02;;;;;;;14.4;8.9;;;;;;;1.1;75;98810;;;;
2022/12/29 00:50:02;;;;;;;15.9;9.5;;;;;;;1.6;73.6;98810;;;;
2022/12/29 01:01:02;;;;;;;10.6;6.6;;;;;;;1.7;73.1;98820;;;;
2022/12/29 01:11:02;;;;;;;10.6;6.6;;;;;;;1.9;72.6;98820;;;;
2022/12/29 01:22:02;;;;;;;10.6;6.6;;;;;;;2.3;72.6;98790;;;;
2022/12/29 01:32:02;;;;;;;7;3.3;;;;;;;2.5;72.2;98770;;;;
2022/12/29 01:43:02;;;;;;;7;3.3;;;;;;;2.6;71.7;98760;;;;
2022/12/29 01:53:02;;;;;;;7;3.3;;;;;;;2.6;71.5;98760;;;;
2022/12/29 02:03:02;;;;;;;5.6;2.9;;;;;;;2.8;71.1;98770;;;;
2022/12/29 02:13:02;;;;;;;5.6;2.9;;;;;;;3;70.8;98750;;;;
2022/12/29 02:24:02;;;;;;;5.6;2.9;;;;;;;3.1;71;98750;;;;
2022/12/29 02:35:02;;;;;;;4.7;3;;;;;;;3.2;70.7;98730;;;;
2022/12/29 02:45:02;;;;;;;4.7;3;;;;;;;3.3;70.6;98720;;;;
2022/12/29 02:55:02;;;;;;;4.7;3;;;;;;;3.2;71.9;98710;;;;
2022/12/29 03:06:02;;;;;;;12.4;6.3;;;;;;;3.2;72;98710;;;;
2022/12/29 03:16:03;;;;;;;12.4;6.3;;;;;;;3.1;72.4;98700;;;;
2022/12/29 03:27:02;;;;;;;12.4;6.3;;;;;;;2.8;72.3;98680;;;;
2022/12/29 03:38:02;;;;;;;14.8;8.7;;;;;;;3.3;68.4;98680;;;;
2022/12/29 03:48:02;;;;;;;14.8;8.7;;;;;;;3.8;66.1;98680;;;;
2022/12/29 03:59:02;;;;;;;14.8;8.7;;;;;;;4;65.6;98690;;;;
2022/12/29 04:10:02;;;;;;;5;2.9;;;;;;;3.8;66.5;98700;;;;
2022/12/29 04:21:03;;;;;;;5;2.9;;;;;;;3.6;67.7;98720;;;;
2022/12/29 04:32:02;;;;;;;9.2;4.6;;;;;;;3.2;69.5;98710;;;;
2022/12/29 04:43:02;;;;;;;9.2;4.6;;;;;;;3;69.7;98680;;;;
2022/12/29 04:53:02;;;;;;;9.2;4.6;;;;;;;3.4;68.8;98670;;;;
2022/12/29 05:04:02;;;;;;;7.1;3.6;;;;;;;3.5;68.3;98680;;;;
2022/12/29 05:14:02;;;;;;;7.1;3.6;;;;;;;3.5;68.1;98670;;;;
2022/12/29 05:25:02;;;;;;;7.1;3.6;;;;;;;3.4;68.3;98660;;;;
2022/12/29 05:36:02;;;;;;;5.3;3.1;;;;;;;3.5;68.9;98650;;;;
2022/12/29 05:47:02;;;;;;;5.3;3.1;;;;;;;4.1;68;98620;;;;
2022/12/29 05:57:02;;;;;;;5.3;3.1;;;;;;;4.1;67.4;98630;;;;
2022/12/29 06:07:02;;;;;;;6.1;3;;;;;;;3.9;67.6;98640;;;;
2022/12/29 06:18:02;;;;;;;6.1;3;;;;;;;3.6;68.1;98630;;;;
2022/12/29 06:28:02;;;;;;;6.1;3;;;;;;;3.7;69.3;98620;;;;
2022/12/29 06:39:02;;;;;;;5.5;2.6;;;;;;;4.2;68.2;98640;;;;
2022/12/29 06:49:02;;;;;;;5.5;2.6;;;;;;;4.3;67.7;98640;;;;
2022/12/29 07:00:02;;;;;;;5;2.3;;;;;;;4.1;68.8;98630;;;;
2022/12/29 07:11:02;;;;;;;5;2.3;;;;;;;4.4;68;98620;;;;
2022/12/29 07:21:02;;;;;;;5;2.3;;;;;;;4.3;68.6;98610;;;;
2022/12/29 07:31:02;;;;;;;7.2;4;;;;;;;4.4;68.2;98610;;;;
2022/12/29 07:41:02;;;;;;;7.2;4;;;;;;;4.3;67.8;98620;;;;
2022/12/29 07:52:02;;;;;;;7.2;4;;;;;;;4.2;67.9;98620;;;;
2022/12/29 08:02:02;;;;;;;6.4;3.4;;;;;;;4.2;68;98610;;;;
2022/12/29 08:13:02;;;;;;;6.4;3.4;;;;;;;4.2;68.4;98620;;;;
2022/12/29 08:23:02;;;;;;;6.4;3.4;;;;;;;4.2;68.7;98630;;;;
2022/12/29 08:33:02;;;;;;;16.3;11.5;;;;;;;4.3;69.4;98630;;;;
2022/12/29 08:43:02;;;;;;;16.3;11.5;;;;;;;4.5;68.9;98630;;;;
2022/12/29 08:54:02;;;;;;;16.3;11.5;;;;;;;4.7;68.9;98620;;;;
2022/12/29 09:04:02;;;;;;;15.2;9;;;;;;;4.9;69;98620;;;;
2022/12/29 09:14:02;;;;;;;15.2;9;;;;;;;5.2;69.3;98620;;;;
2022/12/29 09:24:02;;;;;;;15.2;9;;;;;;;5.6;69.3;98610;;;;
2022/12/29 09:35:02;;;;;;;11.4;7.1;;;;;;;6.1;68.3;98580;;;;
2022/12/29 09:46:02;;;;;;;11.4;7.1;;;;;;;7.4;63.1;98560;;;;
2022/12/29 09:57:02;;;;;;;11.4;7.1;;;;;;;8.3;60;98570;;;;
2022/12/29 10:07:02;;;;;;;8.5;5;;;;;;;8.5;60.8;98590;;;;
2022/12/29 10:18:02;;;;;;;8.5;5;;;;;;;8.5;60.3;98580;;;;
2022/12/29 10:29:02;;;;;;;15.1;10.5;;;;;;;8.7;60.5;98580;;;;
2022/12/29 10:39:03;;;;;;;15.1;10.5;;;;;;;9.3;60;98570;;;;
2022/12/29 10:49:02;;;;;;;15.1;10.5;;;;;;;10.2;58.5;98550;;;;
2022/12/29 11:00:03;;;;;;;12.9;8.3;;;;;;;10.9;57.6;98530;;;;
2022/12/29 11:11:02;;;;;;;12.9;8.3;;;;;;;11.2;56.2;98520;;;;
2022/12/29 11:21:02;;;;;;;12.9;8.3;;;;;;;11.4;55.6;98520;;;;
2022/12/29 11:32:02;;;;;;;8.3;5.2;;;;;;;11.4;55.7;98520;;;;
2022/12/29 11:42:02;;;;;;;8.3;5.2;;;;;;;11.7;56;98520;;;;
2022/12/29 11:53:02;;;;;;;8.3;5.2;;;;;;;11.8;55;98520;;;;
2022/12/29 12:03:02;;;;;;;8.1;4.9;;;;;;;11.9;55.2;98510;;;;
2022/12/29 12:13:02;;;;;;;8.1;4.9;;;;;;;12;55.5;98510;;;;
2022/12/29 12:23:02;;;;;;;8.1;4.9;;;;;;;11.9;55.3;98510;;;;
2022/12/29 12:33:02;;;;;;;10;4.7;;;;;;;11.8;55.9;98500;;;;
2022/12/29 12:44:02;;;;;;;10;4.7;;;;;;;11.7;56.2;98510;;;;
2022/12/29 12:54:02;;;;;;;10;4.7;;;;;;;11.7;56.9;98510;;;;
2022/12/29 13:04:02;;;;;;;7.3;5;;;;;;;11.7;57.3;98520;;;;
2022/12/29 13:15:03;;;;;;;7.3;5;;;;;;;11.6;56.6;98520;;;;
2022/12/29 13:26:02;;;;;;;7.3;5;;;;;;;11.6;56.8;98530;;;;
2022/12/29 13:36:02;;;;;;;9.1;5.1;;;;;;;11.6;56.2;98530;;;;
2022/12/29 13:47:02;;;;;;;9.1;5.1;;;;;;;11.3;57.1;98530;;;;
2022/12/29 13:57:02;;;;;;;9.1;5.1;;;;;;;11.2;57.3;98530;;;;
2022/12/29 14:08:02;;;;;;;6.5;4.4;;;;;;;10.9;58.2;98520;;;;
2022/12/29 14:19:03;;;;;;;6.5;4.4;;;;;;;10.7;58.5;98530;;;;
2022/12/29 14:30:02;;;;;;;7.2;5;;;;;;;10.4;59.1;98520;;;;
2022/12/29 14:41:02;;;;;;;7.2;5;;;;;;;10.2;59.8;98530;;;;
2022/12/29 14:51:02;;;;;;;7.2;5;;;;;;;10.1;59.7;98530;;;;
2022/12/29 15:01:02;;;;;;;9;5.7;;;;;;;9.9;60.4;98530;;;;
2022/12/29 15:12:03;;;;;;;9;5.7;;;;;;;9.6;61;98540;;;;
2022/12/29 15:22:03;;;;;;;9;5.7;;;;;;;9.3;61.8;98540;;;;
2022/12/29 15:33:02;;;;;;;14;7.1;;;;;;;8.9;62.7;98530;;;;
2022/12/29 15:43:02;;;;;;;14;7.1;;;;;;;8.8;63.4;98530;;;;
2022/12/29 15:53:03;;;;;;;14;7.1;;;;;;;8.4;64.7;98530;;;;
2022/12/29 16:04:02;;;;;;;14.6;10.8;;;;;;;8;65.6;98530;;;;
2022/12/29 16:15:02;;;;;;;14.6;10.8;;;;;;;7.8;66.6;98540;;;;
2022/12/29 16:25:03;;;;;;;14.6;10.8;;;;;;;7.8;67.1;98540;;;;
2022/12/29 16:36:03;;;;;;;10.7;8.3;;;;;;;8;66.5;98540;;;;
2022/12/29 16:46:02;;;;;;;10.7;8.3;;;;;;;8.1;66;98540;;;;
2022/12/29 16:57:02;;;;;;;10.7;8.3;;;;;;;8.2;66;98540;;;;
2022/12/29 17:08:03;;;;;;;16.4;9.6;;;;;;;8;66.6;98530;;;;
2022/12/29 17:19:02;;;;;;;16.4;9.6;;;;;;;7.9;66.9;98540;;;;
2022/12/29 17:29:02;;;;;;;14.2;11;;;;;;;7.7;67.7;98540;;;;
2022/12/29 17:40:03;;;;;;;14.2;11;;;;;;;7.4;69.1;98540;;;;
2022/12/29 17:51:02;;;;;;;14.2;11;;;;;;;7.2;69.7;98540;;;;
2022/12/29 18:02:02;;;;;;;19.4;13.5;;;;;;;7;69.3;98560;;;;
2022/12/29 18:12:03;;;;;;;19.4;13.5;;;;;;;6.6;69.5;98570;;;;
2022/12/29 18:23:03;;;;;;;19.4;13.5;;;;;;;6.2;70;98550;;;;
2022/12/29 18:34:03;;;;;;;30.2;23;;;;;;;5.9;70.8;98540;;;;
2022/12/29 18:44:02;;;;;;;30.2;23;;;;;;;5.8;71.4;98550;;;;
2022/12/29 18:55:03;;;;;;;30.2;23;;;;;;;5.6;71.6;98550;;;;
2022/12/29 19:06:02;;;;;;;125.8;86.2;;;;;;;5.4;72.3;98540;;;;
2022/12/29 19:17:03;;;;;;;125.8;86.2;;;;;;;5.3;72.4;98530;;;;
2022/12/29 19:28:02;;;;;;;38.3;24.1;;;;;;;5.4;72.6;98520;;;;
2022/12/29 19:38:02;;;;;;;38.3;24.1;;;;;;;5.8;72.5;98520;;;;
2022/12/29 19:49:03;;;;;;;38.3;24.1;;;;;;;6.4;71.3;98540;;;;
2022/12/29 20:00:03;;;;;;;26.6;15.7;;;;;;;7;69.7;98570;;;;
2022/12/29 20:10:03;;;;;;;26.6;15.7;;;;;;;7.6;67.8;98580;;;;
2022/12/29 20:21:03;;;;;;;26.6;15.7;;;;;;;7.9;66.8;98570;;;;
2022/12/29 20:32:03;;;;;;;14.9;10.3;;;;;;;8.3;65.3;98570;;;;
2022/12/29 20:43:03;;;;;;;14.9;10.3;;;;;;;8.4;64.9;98570;;;;
2022/12/29 20:54:03;;;;;;;14.9;10.3;;;;;;;8.4;65;98570;;;;
2022/12/29 21:04:02;;;;;;;14.2;9.9;;;;;;;8.4;64.8;98570;;;;
2022/12/29 21:14:03;;;;;;;14.2;9.9;;;;;;;8.4;64.5;98560;;;;
2022/12/29 21:25:03;;;;;;;14.2;9.9;;;;;;;8.2;65;98570;;;;
2022/12/29 21:35:02;;;;;;;15.4;9.8;;;;;;;8;65.4;98570;;;;
2022/12/29 21:45:34;;;;;;;15.4;9.8;;;;;;;8;65.4;98570;;;;
2022/12/29 21:56:03;;;;;;;15.4;9.8;;;;;;;8;65.3;98570;;;;
2022/12/29 22:18:03;;;;;;;14.8;10.2;;;;;;;7.8;65.4;98560;;;;
2022/12/29 22:28:03;;;;;;;10.6;7.5;;;;;;;7.6;65.7;98580;;;;
2022/12/29 22:39:03;;;;;;;10.6;7.5;;;;;;;7.5;65.8;98600;;;;
2022/12/29 22:50:03;;;;;;;10.6;7.5;;;;;;;7.4;65.8;98590;;;;
2022/12/29 23:00:03;;;;;;;9.5;6.2;;;;;;;7.3;65.9;98600;;;;
2022/12/29 23:11:03;;;;;;;9.5;6.2;;;;;;;7.1;66.1;98600;;;;
2022/12/29 23:21:03;;;;;;;9.5;6.2;;;;;;;7.1;66.4;98600;;;;
2022/12/29 23:32:03;;;;;;;10.1;6.6;;;;;;;7;66.6;98610;;;;
2022/12/29 23:43:03;;;;;;;10.1;6.6;;;;;;;7;66.7;98590;;;;
2022/12/29 23:54:03;;;;;;;10.1;6.6;;;;;;;7.2;66.4;98590;;;;
